Date,TemperatureHighF,TemperatureAvgF,TemperatureLowF,DewpointHighF,DewpointAvgF,DewpointLowF,HumidityHigh,HumidityAvg,HumidityLow,PressureMaxIn,PressureMinIn,WindSpeedMaxMPH,WindSpeedAvgMPH,GustSpeedMaxMPH,PrecipitationSumIn
2012-1-1,65.2,49.1,35.3,21.5,16.0,13.1,45,28,15,29.82,29.68,5,0,5,0.00
2012-1-2,69.1,50.5,35.3,20.4,15.6,11.8,40,26,13,29.82,29.63,3,0,5,0.00
2012-1-3,70.8,52.5,40.1,21.1,17.3,14.3,40,26,12,29.75,29.61,7,0,8,0.00
2012-1-4,71.8,51.3,37.8,22.1,18.2,15.0,43,28,13,29.82,29.67,3,0,5,0.00
2012-1-5,69.4,50.9,36.9,22.2,18.4,15.4,45,29,15,29.69,29.42,2,0,3,0.00
2012-1-6,67.8,50.2,37.2,23.5,19.4,16.6,45,31,16,29.50,29.30,3,0,5,0.00
2012-1-7,64.7,49.7,34.9,22.5,17.9,10.0,52,31,12,29.54,29.31,28,6,33,0.00
2012-1-8,61.5,50.9,42.5,18.2,15.3,9.1,36,25,13,29.68,29.52,21,6,28,0.00
2012-1-9,61.6,49.6,38.9,27.4,22.9,16.0,49,36,25,29.74,29.56,5,0,7,0.00
2012-1-10,63.2,47.8,36.8,28.9,25.8,23.2,61,44,25,29.61,29.42,3,0,5,0.00
2012-1-11,64.7,53.1,38.9,27.3,18.5,9.5,57,28,13,29.56,29.44,11,2,12,0.00
2012-1-12,59.8,46.3,34.1,12.0,7.5,2.8,36,21,11,29.64,29.49,6,1,13,0.00
2012-1-13,62.4,44.1,30.6,7.0,2.7,-2.7,30,19,7,29.77,29.61,3,0,7,0.00
2012-1-14,62.7,44.4,30.1,9.2,2.1,-3.7,28,18,9,29.71,29.48,3,0,4,0.00
2012-1-15,61.5,49.0,33.1,24.6,9.8,1.1,29,21,14,29.49,29.19,19,3,24,0.00
2012-1-16,59.9,53.6,43.3,25.0,18.4,1.1,34,25,14,29.48,29.16,21,6,28,0.00
2012-1-17,55.1,43.7,35.5,11.2,5.1,1.2,28,20,13,29.69,29.48,5,0,6,0.00
2012-1-18,58.7,44.1,32.4,17.5,10.9,5.6,35,26,17,29.72,29.55,5,0,6,0.00
2012-1-19,57.8,46.2,33.8,20.8,14.9,9.2,39,29,20,29.56,29.31,5,0,6,0.00
2012-1-20,62.3,50.8,38.3,23.3,18.8,15.3,42,29,18,29.48,29.25,5,0,6,0.00
2012-1-21,63.7,57.4,50.8,43.8,27.0,16.1,51,31,21,29.33,28.97,34,11,46,0.00
2012-1-22,55.7,48.1,38.8,22.1,19.4,16.7,43,32,24,29.53,29.34,17,2,24,0.00
2012-1-23,51.0,44.8,40.1,36.6,29.9,19.8,82,57,36,29.43,29.22,11,2,16,0.00
2012-1-24,60.9,47.5,33.8,35.1,26.5,16.6,90,51,19,29.68,29.40,11,2,14,0.00
2012-1-25,69.1,52.2,36.2,33.6,27.6,21.2,56,40,24,29.77,29.54,5,0,7,0.00
2012-1-26,67.8,53.4,40.6,35.1,32.8,29.8,68,47,27,29.59,29.33,5,0,8,0.00
2012-1-27,63.1,56.4,48.0,37.1,23.4,12.1,58,30,16,29.70,29.35,17,5,20,0.00
2012-1-28,63.7,50.4,38.5,13.1,5.3,-2.5,29,17,7,29.83,29.69,13,1,21,0.00
2012-1-29,65.5,48.4,33.5,11.0,6.2,2.4,29,19,9,29.76,29.50,3,0,6,0.00
2012-1-30,64.0,48.8,33.5,16.6,10.3,4.2,33,22,13,29.49,29.31,4,0,6,0.00
2012-1-31,68.3,53.9,42.9,17.3,14.4,10.7,29,21,11,29.49,29.33,4,0,6,0.00
2012-2-1,71.1,58.2,42.8,22.2,18.5,12.1,32,22,15,29.51,29.22,22,4,29,0.00
2012-2-2,59.8,54.1,47.6,22.3,17.2,10.6,29,23,15,29.43,29.32,27,12,33,0.00
2012-2-3,59.9,50.4,44.2,23.7,19.7,15.3,39,30,22,29.53,29.43,16,5,20,0.00
2012-2-4,61.5,50.8,37.8,23.3,21.1,19.1,48,32,21,29.60,29.45,11,2,16,0.00
2012-2-5,62.9,52.2,42.1,22.5,19.9,15.1,43,29,20,29.55,29.40,13,1,13,0.00
2012-2-6,62.3,49.1,35.8,20.3,16.7,13.8,45,28,17,29.53,29.40,7,1,10,0.00
2012-2-7,60.1,52.7,43.1,20.6,17.0,14.3,35,25,18,29.48,29.36,12,1,14,0.00
2012-2-8,69.8,58.9,49.6,26.5,23.6,16.4,38,26,17,29.55,29.41,12,2,13,0.00
2012-2-9,71.6,57.5,42.6,27.5,25.3,23.3,50,31,17,29.62,29.45,5,0,7,0.00
2012-2-10,73.0,58.3,44.2,29.6,26.0,22.5,43,30,18,29.55,29.28,6,1,7,0.00
2012-2-11,71.6,61.4,50.8,33.8,28.2,23.7,40,29,17,29.28,29.03,16,4,21,0.00
2012-2-12,65.8,56.5,47.4,36.1,31.4,26.2,54,39,24,29.19,29.07,21,4,26,0.00
2012-2-13,62.0,53.5,47.6,35.5,29.2,15.5,47,40,20,29.18,28.99,26,7,37,0.00
2012-2-14,53.9,46.9,39.9,39.8,36.1,28.2,92,67,46,29.32,29.08,27,3,27,0.09
2012-2-15,56.6,47.6,41.2,38.4,33.8,23.6,77,61,29,29.40,29.23,22,6,28,0.00
2012-2-16,60.9,52.4,44.5,38.7,29.9,23.8,78,46,25,29.55,29.41,18,7,24,0.00
2012-2-17,64.8,52.4,42.1,26.2,22.3,19.0,48,32,18,29.59,29.42,11,1,17,0.00
2012-2-18,64.7,53.1,38.8,30.3,22.1,17.1,52,32,18,29.50,29.17,12,1,16,0.00
2012-2-19,59.5,53.1,41.9,37.6,21.5,1.6,67,34,10,29.40,29.17,27,10,30,0.00
2012-2-20,59.5,47.4,35.6,15.5,13.1,9.2,41,26,15,29.53,29.41,6,1,11,0.00
2012-2-21,66.0,50.7,35.2,19.7,16.4,12.9,47,27,15,29.62,29.49,8,0,9,0.00
2012-2-22,77.0,58.6,44.5,33.5,27.6,18.0,44,31,18,29.56,29.21,7,1,10,0.00
2012-2-23,72.5,61.2,52.2,31.6,27.0,19.3,45,28,19,29.42,29.16,16,3,19,0.00
2012-2-24,67.6,56.1,43.9,19.8,13.6,9.3,36,20,11,29.58,29.42,8,1,14,0.00
2012-2-25,73.3,56.2,39.5,17.2,10.5,-10.2,32,18,6,29.43,29.22,18,2,26,0.00
2012-2-26,61.3,53.9,43.8,8.1,2.1,-11.8,21,12,6,29.44,29.16,13,3,21,0.00
2012-2-27,61.8,51.2,40.8,38.0,19.2,4.6,68,30,18,29.17,29.00,20,2,22,0.01
2012-2-28,59.2,50.9,44.2,36.9,28.8,22.7,70,44,26,29.48,29.05,16,5,24,0.00
2012-2-29,64.3,55.0,46.7,31.9,24.6,20.5,43,32,19,29.49,29.24,17,7,21,0.00
2012-3-1,65.8,55.7,42.8,33.4,25.9,15.6,62,34,18,29.39,29.13,24,5,28,0.00
2012-3-2,58.1,49.2,40.8,17.5,3.1,-1.9,28,15,9,29.71,29.41,20,6,26,0.00
2012-3-3,66.0,52.2,39.1,17.4,9.6,1.1,27,18,13,29.82,29.65,8,1,11,0.00
2012-3-4,76.1,58.1,39.5,25.7,20.2,13.0,38,24,14,29.69,29.42,3,0,7,0.00
2012-3-5,75.3,60.9,42.6,25.6,21.6,17.8,40,23,14,29.47,29.14,5,0,8,0.00
2012-3-6,73.7,61.6,44.9,35.5,20.6,11.7,61,22,11,29.13,28.67,34,13,43,0.02
2012-3-7,58.3,47.2,37.2,22.8,16.0,6.1,55,30,18,29.55,29.03,31,12,35,0.00
2012-3-8,66.9,56.6,45.7,18.5,13.3,8.9,33,19,11,29.72,29.55,14,4,20,0.00
2012-3-9,73.0,57.0,39.9,16.6,14.0,10.0,35,20,9,29.77,29.38,7,0,7,0.00
2012-3-10,74.6,59.9,41.8,21.1,14.6,9.1,27,17,11,29.41,29.17,10,1,16,0.00
2012-3-11,77.7,65.9,52.8,26.2,19.4,11.6,29,18,9,29.23,29.06,13,4,22,0.00
2012-3-12,77.9,68.5,62.0,29.8,23.6,15.1,28,19,11,29.24,29.12,17,5,19,0.00
2012-3-13,77.0,67.2,58.7,26.5,22.7,17.2,27,19,11,29.24,29.12,25,6,26,0.00
2012-3-14,78.1,69.8,60.2,32.2,28.2,24.4,34,22,14,29.32,29.19,13,4,19,0.00
2012-3-15,79.4,66.8,49.9,30.3,26.7,23.3,40,24,13,29.40,29.20,8,1,12,0.00
2012-3-16,78.1,70.0,63.4,37.7,33.7,27.9,36,26,20,29.21,28.98,24,5,24,0.00
2012-3-17,69.3,60.3,49.2,47.5,37.0,28.6,83,44,26,28.98,28.82,27,9,31,0.16
2012-3-18,53.8,47.5,41.5,29.8,24.6,18.1,55,41,29,29.08,28.85,18,7,20,0.00
2012-3-19,56.5,47.9,39.5,31.3,25.1,19.3,67,42,25,29.35,29.08,15,2,18,0.00
2012-3-20,62.9,52.5,37.8,31.1,24.5,20.3,67,36,20,29.54,29.36,7,1,16,0.00
2012-3-21,75.8,59.5,43.6,31.9,27.5,23.6,52,32,17,29.51,29.27,6,0,6,0.00
2012-3-22,81.4,66.7,48.8,34.5,30.8,26.6,50,29,16,29.30,29.08,15,2,21,0.00
2012-3-23,82.4,70.5,54.8,32.5,28.2,21.1,37,22,11,29.21,29.11,20,3,24,0.00
2012-3-24,79.9,69.6,57.8,34.9,29.9,22.3,36,24,15,29.24,29.09,21,5,27,0.00
2012-3-25,76.5,67.7,52.5,38.5,27.7,24.1,47,23,15,29.13,28.92,31,8,35,0.00
2012-3-26,67.1,57.5,49.6,31.5,27.3,22.7,47,32,19,29.39,29.12,17,5,21,0.00
2012-3-27,74.9,61.9,45.5,28.5,25.0,19.4,48,27,13,29.38,29.19,12,2,17,0.00
2012-3-28,78.8,68.1,58.3,32.7,26.3,18.3,30,21,15,29.26,29.15,19,6,22,0.00
2012-3-29,78.1,65.6,50.5,32.5,30.7,27.2,48,28,17,29.31,29.17,7,0,10,0.00
2012-3-30,83.8,69.9,53.9,33.9,31.2,27.6,42,25,16,29.29,29.10,8,1,13,0.00
2012-3-31,87.0,74.1,62.0,34.6,28.1,18.4,34,20,9,29.13,28.92,24,6,32,0.00
2012-4-1,67.4,60.3,51.0,38.5,22.2,9.8,45,25,13,29.31,28.99,32,12,36,0.00
2012-4-2,69.3,60.0,51.3,15.3,11.3,7.0,19,15,10,29.40,29.23,24,7,27,0.00
2012-4-3,76.0,61.7,45.8,19.8,14.6,10.9,28,16,9,29.41,29.17,9,0,11,0.00
2012-4-4,83.2,70.6,56.3,27.5,18.6,6.5,23,15,7,29.21,28.98,22,5,28,0.00
2012-4-5,73.9,65.7,55.9,27.4,13.3,-10.6,24,14,5,29.14,28.94,25,9,29,0.00
2012-4-6,68.4,56.6,47.6,19.6,12.2,1.0,31,18,7,29.51,29.15,22,6,25,0.00
2012-4-7,78.8,61.0,41.9,11.8,6.7,2.6,24,13,6,29.56,29.34,13,1,13,0.00
2012-4-8,83.4,66.5,46.4,11.0,4.3,-2.7,16,9,5,29.45,29.25,8,1,11,0.00
2012-4-9,88.0,70.8,51.9,19.4,13.3,5.3,20,11,7,29.33,29.11,14,2,20,0.00
2012-4-10,86.5,78.2,60.9,29.5,21.7,14.6,18,12,8,29.15,28.95,26,7,32,0.00
2012-4-11,74.4,65.9,58.3,34.1,29.5,26.0,34,26,17,29.21,28.96,22,7,30,0.00
2012-4-12,70.8,63.1,53.3,34.4,26.6,16.6,46,27,13,29.33,29.16,20,6,25,0.00
2012-4-13,64.7,56.7,47.6,44.8,33.9,22.7,89,46,21,29.18,28.91,18,8,29,0.06
2012-4-14,58.3,50.8,43.8,48.2,37.8,32.1,87,63,40,29.28,28.89,13,3,17,0.05
2012-4-15,73.0,59.8,44.9,46.8,38.0,31.1,85,50,22,29.45,29.28,11,1,14,0.00
2012-4-16,78.6,66.3,51.6,39.5,33.7,28.0,62,33,17,29.50,29.32,6,1,11,0.00
2012-4-17,84.3,70.7,54.4,37.0,32.4,27.3,48,27,14,29.40,29.20,6,1,10,0.00
2012-4-18,89.0,75.8,59.3,34.3,28.1,18.3,37,19,8,29.22,29.05,13,2,19,0.00
2012-4-19,90.7,78.4,62.3,37.3,33.2,28.8,31,20,13,29.23,29.09,18,2,22,0.00
2012-4-20,91.6,81.3,68.1,37.7,35.3,33.4,29,20,13,29.34,29.16,10,1,14,0.00
2012-4-21,97.1,83.1,66.9,40.8,35.1,29.7,32,19,10,29.26,29.09,7,1,14,0.00
2012-4-22,99.9,85.7,68.4,38.2,32.3,25.2,28,16,9,29.20,29.04,11,2,14,0.00
2012-4-23,98.5,84.8,67.1,35.6,31.5,26.9,26,16,9,29.14,29.00,21,3,25,0.00
2012-4-24,90.3,81.3,70.3,39.1,34.3,29.7,26,19,13,29.21,29.04,16,4,21,0.00
2012-4-25,85.3,78.3,73.9,47.4,34.6,21.1,39,21,12,29.26,29.02,11,2,14,0.00
2012-4-26,76.5,71.6,64.3,45.0,41.5,34.6,48,34,23,29.16,28.93,21,8,25,0.00
2012-4-27,82.4,70.9,58.3,44.2,31.6,15.7,56,28,9,29.33,29.16,8,1,16,0.00
2012-4-28,83.2,74.0,64.7,27.8,23.4,16.5,19,15,12,29.24,29.05,13,2,18,0.00
2012-4-29,86.5,74.6,59.3,29.2,26.1,24.1,27,17,12,29.24,29.09,10,1,12,0.00
2012-4-30,93.2,78.5,59.5,31.4,25.3,18.5,28,15,7,29.21,28.97,17,2,25,0.00
2012-5-1,91.4,82.1,73.0,39.9,35.9,30.9,26,20,12,28.99,28.83,19,5,24,0.00
2012-5-2,86.5,78.0,69.9,39.0,34.4,28.4,25,21,17,29.07,28.91,21,6,29,0.00
2012-5-3,88.8,79.1,69.4,38.0,31.7,24.4,30,19,10,29.13,29.00,22,8,26,0.00
2012-5-4,87.4,78.8,69.6,27.5,22.9,13.1,19,13,7,29.16,29.05,20,7,25,0.00
2012-5-5,85.9,75.8,67.3,25.4,18.8,6.3,20,12,7,29.28,29.09,25,7,31,0.00
2012-5-6,84.7,75.2,64.2,19.4,14.5,9.8,14,10,7,29.31,29.15,16,3,29,0.00
2012-5-7,80.7,72.5,65.5,27.9,15.3,6.3,19,12,6,29.31,29.17,30,7,41,0.00
2012-5-8,90.7,79.9,69.3,27.3,22.9,18.1,19,12,9,29.24,29.09,24,4,25,0.00
2012-5-9,94.5,80.6,62.7,27.6,22.5,18.6,23,12,7,29.22,29.01,12,1,15,0.00
2012-5-10,96.1,83.7,67.6,38.9,30.6,19.2,34,16,8,29.08,28.87,16,2,26,0.00
2012-5-11,94.0,86.6,74.6,29.9,25.0,18.4,17,11,8,29.09,28.91,10,2,14,0.00
2012-5-12,97.3,84.1,65.6,27.1,21.3,15.7,19,10,7,29.26,29.10,10,1,12,0.00
2012-5-13,97.8,85.2,69.4,22.0,16.3,10.8,14,8,5,29.28,29.13,13,1,19,0.00
2012-5-14,97.8,85.8,66.4,24.5,17.2,10.9,18,8,5,29.29,29.00,9,1,12,0.00
2012-5-15,94.7,85.6,76.5,23.0,15.5,6.8,13,8,4,29.05,28.96,18,6,27,0.00
2012-5-16,99.7,84.5,65.8,28.5,22.1,14.9,17,11,6,29.10,28.93,12,2,17,0.00
2012-5-17,100.2,88.9,73.5,33.0,25.5,12.5,20,11,5,28.99,28.74,22,5,29,0.00
2012-5-18,88.8,82.4,73.9,28.5,23.4,16.7,17,12,7,29.04,28.77,22,8,32,0.00
2012-5-19,91.6,81.0,68.9,31.5,26.5,21.0,22,14,9,29.20,29.04,13,1,14,0.00
2012-5-20,97.8,83.9,66.3,29.5,24.0,18.7,23,12,6,29.22,29.08,7,1,10,0.00
2012-5-21,104.1,88.0,66.9,32.0,25.0,20.4,20,11,6,29.18,28.98,14,3,20,0.00
2012-5-22,103.6,92.3,81.1,36.9,30.8,25.9,19,12,7,29.04,28.80,16,4,20,0.00
2012-5-23,97.8,88.5,80.3,34.8,21.4,8.4,18,9,5,28.89,28.70,25,8,32,0.00
2012-5-24,92.1,81.6,72.3,27.0,21.1,15.5,13,11,8,28.95,28.63,20,4,26,0.00
2012-5-25,80.9,75.1,62.6,36.8,28.9,15.8,25,19,9,28.87,28.63,31,12,34,0.00
2012-5-26,74.9,64.9,54.4,32.4,27.0,23.5,38,25,16,29.20,28.87,20,6,27,0.00
2012-5-27,81.8,71.0,58.3,32.7,28.8,22.1,37,22,12,29.31,29.18,15,3,19,0.00
2012-5-28,89.0,77.5,60.7,27.5,23.6,19.0,26,15,8,29.27,29.08,8,2,12,0.00
2012-5-29,95.9,81.5,62.1,31.5,21.9,12.3,22,12,5,29.19,29.06,14,2,19,0.00
2012-5-30,98.2,84.6,65.5,28.3,22.8,18.6,18,11,6,29.19,29.06,8,1,13,0.00
2012-5-31,103.8,90.1,71.6,32.4,27.0,20.5,17,11,7,29.16,28.95,9,1,16,0.00
2012-6-1,106.5,92.5,73.5,36.9,28.9,24.0,19,11,6,29.06,28.84,12,2,16,0.00
2012-6-2,104.9,94.5,81.1,33.1,27.1,19.6,16,10,5,28.94,28.84,17,4,22,0.00
2012-6-3,102.3,91.5,78.1,39.3,30.3,22.5,20,12,6,29.05,28.91,19,4,22,0.00
2012-6-4,100.2,89.0,74.6,45.1,34.9,27.8,27,15,10,29.06,28.85,22,7,27,0.00
2012-6-5,86.7,78.1,69.4,46.2,30.7,10.5,34,19,8,29.07,28.90,27,9,33,0.00
2012-6-6,88.8,77.8,66.0,23.7,17.9,8.2,14,11,8,29.18,29.01,18,4,24,0.00
2012-6-7,95.9,83.3,66.6,26.4,21.9,18.6,19,11,7,29.16,28.99,10,1,12,0.00
2012-6-8,100.2,87.2,67.1,40.6,29.1,23.9,22,13,7,29.02,28.83,19,5,29,0.00
2012-6-9,98.2,87.6,77.0,41.8,29.2,8.6,26,14,5,29.01,28.79,17,6,20,0.00
2012-6-10,91.4,79.5,67.6,16.9,9.2,1.3,10,7,5,29.23,29.01,13,3,20,0.00
2012-6-11,98.2,83.5,65.6,22.6,16.5,9.8,16,9,5,29.23,29.09,7,1,12,0.00
2012-6-12,102.3,87.5,67.9,25.0,19.1,14.6,17,9,5,29.18,28.96,12,3,17,0.00
2012-7-1,106.0,100.1,89.9,34.8,26.7,19.9,14,8,5,28.99,28.86,14,4,19,0.00
2012-7-2,106.8,92.9,74.6,39.4,33.9,27.8,24,13,7,29.04,28.89,14,2,18,0.00
2012-7-3,104.1,92.4,77.7,52.0,41.2,30.5,30,17,10,29.06,28.89,16,5,21,0.00
2012-7-4,94.9,84.2,76.3,67.5,53.0,41.7,73,37,19,29.15,28.97,25,5,31,0.02
2012-7-5,97.1,85.3,72.3,63.9,57.2,49.5,74,43,21,29.21,29.03,16,3,20,0.00
2012-7-6,103.8,92.5,78.1,50.2,42.7,35.2,34,20,10,29.19,29.04,10,2,17,0.00
2012-7-7,107.7,94.5,79.0,42.6,37.9,34.3,26,15,9,29.18,29.01,11,1,12,0.00
2012-7-8,109.9,96.5,79.0,41.3,36.7,32.0,22,13,8,29.17,29.01,8,1,12,0.00
2012-7-9,112.9,100.1,84.7,39.9,34.9,31.7,16,11,7,29.13,28.95,7,1,12,0.00
2012-7-10,114.1,101.6,84.3,41.4,37.1,32.8,19,12,7,29.06,28.88,10,1,11,0.00
2012-7-11,113.2,103.7,89.9,51.4,45.1,38.3,21,14,9,29.05,28.90,21,5,29,0.00
2012-7-12,102.3,94.2,86.5,61.4,52.9,47.8,43,25,19,29.13,28.96,21,4,30,0.03
2012-7-13,89.7,82.1,76.7,68.3,64.2,60.5,75,55,39,29.27,29.14,14,2,20,0.00
2012-7-14,94.9,84.2,72.3,68.7,62.8,57.9,85,51,30,29.23,29.07,19,3,26,0.04
2012-7-15,90.7,83.7,74.4,64.5,58.5,49.9,68,44,27,29.23,29.05,18,2,27,0.00
2012-7-16,99.4,86.3,73.5,66.6,49.7,21.3,70,35,7,29.16,28.97,17,3,24,0.03
2012-7-17,97.1,87.0,71.1,42.8,28.9,20.9,33,14,7,29.13,29.02,20,4,29,0.00
2012-7-18,99.9,88.2,73.0,37.3,30.7,22.9,23,14,8,29.22,29.06,8,1,24,0.00
2012-7-19,102.5,91.1,76.0,47.5,37.0,29.0,23,15,11,29.20,29.09,13,2,17,0.00
2012-7-20,105.4,95.3,80.7,50.7,48.0,45.3,32,21,15,29.20,29.04,8,1,17,0.00
2012-7-21,107.7,96.3,83.8,55.9,51.0,46.7,32,22,15,29.17,29.00,14,2,25,0.00
2012-7-22,104.9,95.8,85.1,60.0,55.7,50.7,42,27,17,29.19,29.01,14,2,16,0.00
2012-7-23,99.4,93.6,84.3,66.1,57.0,51.3,54,30,21,29.18,29.04,19,3,21,0.07
2012-7-24,104.9,94.3,82.6,57.6,52.4,42.5,39,26,14,29.16,28.98,20,4,25,0.00
2012-7-25,106.0,96.2,86.3,57.4,34.0,22.4,32,12,8,29.14,28.97,16,2,20,0.00
2012-7-26,106.5,93.3,76.5,41.5,33.8,20.9,23,13,6,29.11,28.99,18,2,24,0.00
2012-7-27,106.2,92.0,73.2,35.2,26.1,17.7,23,11,5,29.15,29.00,12,2,13,0.00
2012-7-28,107.4,91.6,71.3,29.9,22.2,15.9,20,9,4,29.17,29.01,16,3,21,0.00
2012-7-29,103.3,93.5,79.4,53.3,40.7,20.8,26,17,8,29.20,29.06,12,2,15,0.00
2012-7-30,96.8,88.1,81.4,66.7,60.1,49.9,61,40,24,29.25,29.09,18,4,28,0.00
2012-7-31,90.1,81.4,74.7,70.7,67.0,62.2,85,63,41,29.35,29.21,18,2,18,0.03
2012-8-1,93.2,82.6,74.4,72.2,65.6,56.8,90,61,32,29.36,29.19,8,1,14,0.12
2012-8-2,103.6,91.0,76.7,63.8,56.9,48.2,62,35,17,29.23,29.01,7,1,13,0.00
2012-8-3,105.4,95.1,82.6,62.7,55.3,46.6,51,28,16,29.08,28.94,16,2,17,0.00
2012-8-4,105.1,95.8,84.3,53.5,49.5,44.4,31,22,15,29.10,28.98,10,2,15,0.00
2012-8-5,106.5,96.1,82.4,51.8,48.2,41.9,34,21,12,29.18,29.08,14,3,19,0.00
2012-8-6,105.1,95.5,87.4,54.7,50.4,47.1,30,22,16,29.27,29.12,9,1,11,0.00
2012-8-7,108.5,97.0,83.2,54.3,51.4,48.3,36,23,14,29.21,29.06,14,2,28,0.00
2012-8-8,110.8,99.1,84.3,52.1,49.7,45.9,31,20,12,29.16,29.01,12,1,13,0.00
2012-8-9,111.9,99.4,88.0,54.5,49.4,42.0,27,19,10,29.15,28.97,24,3,29,0.00
2012-8-10,110.5,99.7,88.6,55.5,48.8,40.0,30,19,11,29.11,28.90,14,2,27,0.00
2012-8-11,109.6,98.8,88.8,56.3,48.1,42.4,27,19,12,29.07,28.94,19,2,24,0.00
2012-8-12,109.3,98.3,85.7,56.2,51.3,44.9,36,22,13,29.11,28.96,19,2,22,0.00
2012-8-13,109.1,98.9,87.2,55.8,51.3,44.3,34,21,12,29.11,28.93,22,3,29,0.00
2012-8-14,107.7,100.5,92.3,55.5,50.4,44.3,26,19,13,29.10,28.92,26,3,28,0.00
2012-8-15,107.9,99.0,87.0,56.3,49.1,36.8,28,19,9,29.06,28.93,21,4,26,0.00
2012-8-16,102.5,93.0,82.0,61.8,53.8,40.5,37,27,19,29.13,29.00,18,4,27,0.00
2012-8-17,99.4,90.2,78.1,68.5,59.1,55.7,69,36,26,29.21,29.05,19,4,26,0.26
2012-8-18,101.0,89.9,77.9,69.2,62.9,57.9,71,43,25,29.19,29.01,13,2,18,0.00
2012-8-19,104.6,94.7,82.4,65.6,59.9,55.8,53,33,21,29.11,28.94,16,3,24,0.00
2012-8-20,101.0,91.0,80.3,65.9,61.4,56.4,60,39,25,29.17,29.00,12,2,19,0.00
2012-8-21,101.2,91.6,82.0,67.9,60.3,56.5,62,36,26,29.10,28.98,24,4,26,0.01
2012-8-22,87.6,74.7,70.3,70.2,66.8,62.4,93,78,43,29.28,29.05,17,2,20,0.48
2012-8-23,88.0,78.0,68.3,70.0,65.0,56.6,100,68,42,29.25,29.07,4,0,10,0.01
2012-8-24,98.7,86.8,74.0,68.0,62.6,55.9,77,48,27,29.16,29.00,8,1,12,0.00
2012-8-25,101.0,91.2,78.8,65.9,59.8,52.6,61,37,21,29.07,28.94,10,2,19,0.00
2012-8-26,102.0,91.9,79.0,61.1,53.4,46.2,53,29,16,29.10,28.98,20,2,20,0.00
2012-8-27,103.8,91.3,75.4,55.9,46.4,35.7,49,24,11,29.19,29.08,12,1,13,0.00
2012-8-28,106.0,92.4,76.5,49.2,42.4,36.5,28,19,11,29.20,29.02,14,1,18,0.00
2012-8-29,104.6,92.1,78.3,57.5,50.9,44.7,38,26,15,29.11,28.98,30,2,32,0.00
2012-8-30,99.9,89.9,83.0,61.5,55.4,46.7,48,32,20,29.08,29.00,16,2,21,0.00
2012-8-31,95.1,88.5,83.0,69.6,58.9,54.1,64,37,28,29.13,29.02,17,4,25,0.13
2012-9-1,99.0,89.9,79.9,61.2,39.9,24.7,48,20,9,29.15,29.05,13,4,21,0.00
2012-9-2,101.7,87.1,69.1,45.8,30.8,19.3,25,14,7,29.20,29.04,12,2,15,0.00
2012-9-3,103.8,88.4,68.9,43.7,33.0,22.3,25,14,8,29.22,29.07,11,1,13,0.00
2012-9-4,102.5,92.1,82.0,63.2,53.1,40.8,50,28,16,29.23,29.08,12,2,17,0.00
2012-9-5,97.3,89.5,81.2,63.4,57.7,46.8,54,35,19,29.20,29.07,14,2,19,0.00
2012-9-6,101.5,92.4,82.4,56.6,52.1,47.3,41,27,17,29.14,29.01,13,3,19,0.00
2012-9-7,102.5,92.2,78.8,58.1,52.2,49.2,39,27,18,29.19,29.07,8,1,12,0.00
2012-9-8,104.1,92.3,79.6,58.6,47.7,39.9,41,24,12,29.23,29.08,10,1,13,0.00
2012-9-9,101.0,90.6,79.6,63.6,55.0,44.1,57,32,19,29.20,29.05,11,1,24,0.00
2012-9-10,97.1,87.7,79.9,63.9,57.7,50.6,57,38,22,29.20,29.03,16,6,22,0.00
2012-9-11,85.7,75.6,69.4,67.9,63.8,59.1,92,69,42,29.28,29.17,17,2,20,0.55
2012-9-12,91.8,79.0,67.6,66.2,57.5,42.0,92,55,18,29.35,29.23,7,0,11,0.00
2012-9-13,96.1,85.7,70.8,54.8,36.6,27.5,52,20,10,29.42,29.29,13,1,14,0.00
2012-9-14,96.6,83.3,68.3,42.7,38.6,32.2,36,22,12,29.42,29.27,7,1,11,0.00
2012-9-15,97.1,83.1,67.4,48.1,39.8,33.2,43,24,11,29.39,29.23,7,1,11,0.00
2012-9-16,98.5,84.1,67.6,43.0,37.3,29.5,39,21,9,29.32,29.14,12,2,18,0.00
2012-9-17,98.0,83.2,67.9,42.8,38.2,32.2,37,22,11,29.24,29.14,7,0,8,0.00
2012-9-18,98.7,86.9,72.5,40.0,35.5,29.4,29,17,10,29.31,29.18,6,0,10,0.00
2012-9-19,100.3,84.2,69.9,39.3,35.6,31.6,28,19,10,29.31,29.15,6,0,10,0.00
2012-9-20,98.7,84.6,69.9,40.7,35.8,31.9,28,19,10,29.27,29.14,7,0,12,0.00
2012-9-21,99.0,85.3,70.1,41.0,36.3,31.9,32,19,11,29.24,29.08,11,1,12,0.00
2012-9-22,97.5,88.0,74.6,43.6,40.1,37.2,29,19,13,29.22,29.11,7,0,11,0.00
2012-9-23,97.1,84.0,71.3,46.0,40.0,33.7,39,22,11,29.22,29.12,14,1,18,0.00
2012-9-24,94.5,85.3,75.6,44.8,39.7,35.0,30,21,13,29.14,28.98,19,4,26,0.00
2012-9-25,91.0,80.0,67.9,45.3,41.0,36.9,43,26,16,29.15,29.04,10,1,12,0.00
2012-9-26,91.0,80.0,66.3,44.3,40.5,37.0,37,25,16,29.20,29.11,7,0,12,0.00
2012-9-28,94.9,87.9,77.6,41.1,37.8,34.2,25,17,13,29.21,29.11,5,0,8,0.00
2012-9-29,97.5,82.2,66.1,39.4,35.8,30.8,32,20,10,29.29,29.15,6,0,8,0.00
2012-9-30,99.2,82.8,67.3,38.5,34.0,26.6,30,19,8,29.34,29.19,8,0,9,0.00
2012-10-1,98.7,82.7,66.6,36.5,32.8,28.1,29,18,9,29.33,29.16,8,0,10,0.00
2012-10-2,99.4,82.6,65.6,36.5,33.0,29.3,28,18,9,29.22,29.03,6,0,10,0.00
2012-10-3,98.7,83.3,65.5,36.3,31.5,26.3,27,16,9,29.18,29.06,18,2,18,0.00
2012-10-4,94.0,81.4,65.2,37.2,34.8,30.7,33,20,11,29.24,29.11,7,1,14,0.00
2012-10-5,89.3,77.4,64.2,38.1,35.1,31.8,33,22,14,29.26,29.13,5,0,10,0.00
2012-10-6,90.1,77.2,64.3,37.8,32.9,26.7,33,21,12,29.21,29.07,12,0,12,0.00
2012-10-7,86.5,74.6,61.3,34.9,27.7,21.1,31,19,10,29.26,29.11,14,1,14,0.00
2012-10-8,90.7,75.9,59.3,37.4,29.4,22.3,34,19,9,29.23,29.07,12,2,17,0.00
2012-10-9,90.1,79.7,69.6,40.3,32.0,28.2,26,18,12,29.18,29.05,19,2,19,0.00
2012-10-10,84.0,75.9,65.6,59.3,43.5,29.6,78,34,19,29.19,29.09,16,3,24,0.02
2012-10-11,66.4,62.4,53.5,61.8,57.8,49.7,93,85,73,29.23,29.10,13,3,16,0.84
2012-10-12,69.9,60.6,52.2,51.5,46.9,40.0,93,63,34,29.39,29.22,11,1,16,0.00
2012-10-13,75.4,63.9,53.2,53.6,49.0,45.4,86,61,36,29.52,29.38,5,0,6,0.00
2012-10-14,84.0,67.7,56.3,55.9,50.2,39.8,89,59,22,29.54,29.34,8,0,11,0.00
2012-10-15,86.5,70.5,57.2,51.1,46.8,40.8,74,47,21,29.36,29.19,5,0,7,0.00
2012-10-16,87.0,70.1,58.0,51.1,47.3,40.2,74,48,20,29.25,29.04,6,0,7,0.00
2012-10-17,86.1,73.9,62.0,50.6,38.3,22.6,61,31,11,29.30,29.10,12,1,12,0.00
2012-10-18,84.7,69.3,55.1,37.9,30.7,21.2,51,27,11,29.43,29.28,6,0,8,0.00
2012-10-19,87.2,69.2,55.1,40.9,34.3,28.3,49,30,13,29.35,29.13,6,0,7,0.00
2012-10-20,85.9,71.1,54.5,41.9,36.5,30.6,58,32,14,29.16,28.95,11,1,13,0.00
2012-10-21,80.9,73.6,66.9,47.0,42.2,35.1,40,33,25,29.04,28.95,17,4,24,0.00
2012-10-22,80.3,71.8,65.2,44.1,37.3,30.8,43,29,20,29.09,29.01,30,8,30,0.00
2012-10-23,74.9,67.0,59.9,44.2,31.3,18.0,50,30,12,29.15,29.03,21,8,28,0.00
2012-10-24,72.5,63.7,54.8,33.7,26.5,14.9,42,25,11,29.33,29.08,17,5,21,0.00
2012-10-25,73.7,62.0,52.2,27.1,22.5,18.5,37,23,14,29.51,29.34,17,2,24,0.00
2012-10-26,69.4,59.8,51.9,23.2,19.2,10.1,32,21,10,29.64,29.43,17,4,21,0.00
2012-10-27,78.6,60.3,45.7,28.8,22.2,16.5,42,25,11,29.47,29.29,5,0,6,0.00
2012-10-28,81.8,63.1,47.7,33.1,28.4,24.0,46,29,13,29.42,29.27,3,0,5,0.00
2012-10-29,83.2,64.0,50.8,34.0,30.8,25.7,48,31,13,29.47,29.33,3,0,6,0.00
2012-10-30,84.1,67.5,51.9,34.3,30.7,25.4,47,27,12,29.45,29.28,3,0,5,0.00
2012-10-31,84.0,64.4,51.1,36.0,31.4,27.4,48,31,14,29.40,29.21,4,0,7,0.00
2012-11-1,80.1,64.7,52.5,36.2,30.5,24.7,51,31,13,29.29,29.16,10,1,17,0.00
2012-11-2,80.5,64.2,51.6,30.5,27.8,24.6,40,27,13,29.32,29.20,3,0,8,0.00
2012-11-3,82.2,63.1,48.9,31.1,27.9,24.0,46,29,13,29.44,29.30,3,0,5,0.00
2012-11-4,83.8,64.7,48.9,33.0,29.2,25.9,46,28,13,29.55,29.42,2,0,6,0.00
2012-11-5,86.3,69.4,53.6,37.1,33.3,29.4,43,28,15,29.56,29.38,3,0,7,0.00
2012-11-6,85.3,67.4,53.3,38.3,35.1,31.0,52,33,15,29.49,29.32,3,0,6,0.00
2012-11-7,82.6,66.0,51.4,38.3,34.9,32.0,53,34,17,29.39,29.14,6,0,6,0.00
2012-11-8,80.3,68.8,56.0,49.9,37.9,28.2,53,34,19,29.13,28.95,22,6,28,0.00
2012-11-9,65.0,57.9,44.1,47.8,31.0,10.1,65,39,14,29.15,28.95,24,7,32,0.00
2012-11-10,54.2,47.9,42.3,30.4,23.1,14.2,57,39,21,29.46,29.13,18,5,20,0.00
2012-11-11,56.3,47.3,38.3,20.8,15.2,10.7,40,28,18,29.78,29.47,17,3,21,0.00
2012-11-12,62.3,47.2,32.9,17.0,13.6,9.8,48,28,13,29.82,29.59,6,0,9,0.00
2012-11-13,69.6,51.1,35.9,22.2,14.5,8.9,41,25,10,29.67,29.49,3,0,6,0.00
2012-11-14,68.1,52.5,37.5,27.3,21.0,17.5,50,31,15,29.58,29.42,3,0,5,0.00
2012-11-15,65.1,55.4,43.9,27.3,24.5,20.2,47,31,18,29.50,29.40,1,0,3,0.00
2012-11-16,68.9,58.1,44.9,30.7,26.3,23.5,50,31,20,29.45,29.32,2,0,7,0.00
2012-11-17,73.5,60.5,46.7,43.5,36.4,26.0,52,41,29,29.39,29.26,13,2,14,0.00
2012-11-18,72.5,63.1,52.3,45.7,39.9,30.9,59,44,22,29.42,29.27,17,4,19,0.00
2012-11-19,70.3,57.5,46.5,41.7,38.6,35.8,70,51,30,29.56,29.43,5,0,8,0.00
2012-11-20,71.1,56.7,0.0,38.9,36.4,-19.1,70,49,27,29.56,29.36,6,0,6,0.00
2012-11-21,71.3,61.2,49.8,36.8,34.3,31.1,58,38,24,29.43,29.29,3,0,6,0.00
2012-11-22,71.8,54.1,43.6,39.3,32.7,28.8,65,46,22,29.56,29.37,5,0,5,0.00
2012-11-23,74.6,58.3,44.2,33.5,29.3,25.5,59,36,16,29.67,29.50,5,0,6,0.00
2012-11-24,74.9,56.5,43.1,32.5,25.7,21.4,49,33,14,29.58,29.33,5,0,5,0.00
2012-11-25,71.8,54.5,40.6,32.2,25.7,22.2,50,35,17,29.38,29.20,3,0,5,0.00
2012-11-26,73.0,55.4,40.9,31.6,24.8,19.2,51,33,15,29.49,29.31,3,0,5,0.00
2012-11-27,68.3,53.7,40.1,34.9,26.7,23.5,54,37,20,29.60,29.45,2,0,3,0.00
2012-11-28,72.1,61.6,44.6,30.9,27.9,25.0,51,29,19,29.51,29.34,8,1,11,0.00
2012-11-29,73.7,66.1,61.3,46.3,41.4,27.1,53,41,27,29.42,29.31,18,5,21,0.00
2012-11-30,70.4,65.5,59.9,47.7,45.1,41.9,57,48,40,29.33,29.20,28,9,28,0.00
2012-12-1,66.1,59.1,52.6,47.6,44.8,41.0,73,60,47,29.41,29.28,10,1,12,0.00
2012-12-2,72.5,60.0,48.0,48.1,44.7,42.0,82,59,34,29.36,29.11,27,4,31,0.00
2012-12-3,69.3,58.5,49.6,46.7,44.3,41.7,76,60,41,29.52,29.23,6,0,8,0.00
2012-12-4,68.9,57.8,48.9,45.1,43.2,41.3,76,59,39,29.64,29.48,3,0,5,0.00
2012-12-5,65.0,55.1,48.2,44.2,42.5,39.2,78,63,45,29.48,29.32,3,0,3,0.00
2012-12-6,70.8,55.4,43.9,46.8,40.7,38.1,82,60,33,29.36,29.19,6,0,14,0.00
2012-12-7,68.9,57.4,46.1,48.5,30.0,21.6,67,38,18,29.36,29.23,10,1,19,0.00
2012-12-8,66.3,51.8,40.1,28.1,22.7,18.0,49,34,18,29.35,29.23,5,0,6,0.00
2012-12-9,60.7,52.8,44.2,25.6,20.7,17.3,39,29,21,29.63,29.27,12,2,17,0.00
2012-12-10,57.5,45.7,35.0,22.4,20.0,17.8,54,37,23,29.68,29.48,10,0,10,0.00
2012-12-11,59.2,46.4,35.3,24.3,22.0,19.4,59,40,23,29.53,29.27,3,0,6,0.00
2012-12-12,61.3,53.7,41.3,26.0,21.6,18.8,47,30,20,29.26,29.13,21,5,28,0.00
2012-12-13,58.1,52.8,47.9,47.1,38.2,21.5,96,62,27,29.17,29.03,12,2,16,0.22
2012-12-14,56.5,49.3,43.3,47.8,40.1,28.8,98,73,41,29.26,28.97,17,4,19,0.20
2012-12-15,52.2,44.7,40.1,40.2,35.8,30.2,87,72,44,29.38,29.22,13,4,18,0.04
2012-12-16,51.3,43.2,34.7,39.1,35.0,31.2,89,74,49,29.51,29.37,6,1,7,0.00
2012-12-17,53.2,47.9,45.1,42.4,39.5,36.9,84,73,62,29.47,29.24,8,1,12,0.00
2012-12-18,56.7,50.1,42.2,47.2,39.4,27.3,85,67,50,29.24,28.97,27,7,33,0.00
2012-12-19,48.0,41.9,32.8,28.1,11.8,4.2,53,30,17,29.82,29.18,26,9,29,0.00
2012-12-20,47.7,37.1,27.3,21.9,16.1,10.6,65,45,23,29.84,29.65,7,1,12,0.00
2012-12-21,52.2,38.1,27.5,23.4,19.1,14.0,68,49,25,29.65,29.50,9,1,12,0.00
2012-12-22,54.5,38.9,30.0,29.7,23.7,20.6,74,57,30,29.55,29.37,10,0,18,0.00
2012-12-23,55.1,46.8,38.6,33.8,30.3,25.6,67,53,39,29.50,29.30,10,1,10,0.00
2012-12-24,62.1,49.6,38.8,39.4,26.6,10.1,78,46,16,29.50,29.23,27,6,33,0.00
2012-12-25,49.4,42.3,35.2,18.9,14.8,12.0,46,33,23,29.63,29.33,6,0,10,0.00
2012-12-26,52.2,42.8,35.9,26.9,22.4,17.6,62,45,28,29.32,29.17,11,1,13,0.00
2012-12-27,54.1,42.6,30.7,31.1,24.4,17.9,81,52,26,29.47,29.27,14,2,19,0.00
2012-12-28,49.9,39.6,32.1,23.1,20.6,16.7,62,48,27,29.61,29.48,8,0,11,0.00
2012-12-29,52.8,43.2,32.8,27.8,21.5,16.7,66,44,26,29.52,29.34,7,1,11,0.00
2012-12-30,49.4,42.0,34.9,30.5,25.4,21.9,65,52,38,29.37,29.27,10,1,13,0.00
2012-12-31,48.8,41.2,31.8,24.0,16.9,12.3,54,38,24,29.66,29.36,18,2,21,0.00
2013-1-1,51.3,38.2,27.6,16.5,13.8,10.9,58,39,21,29.77,29.64,10,1,11,0.00